Time;durP1;ratioP1;P1;durP2;ratioP2;P2;SDS_P1;SDS_P2;PMS_P1;PMS_P2;Temp;Humidity;BMP_temperature;BMP_pressure;BME280_temperature;BME280_humidity;BME280_pressure;Samples;Min_cycle;Max_cycle;Signal;HPM_P1;HPM_P2
2023/03/02 00:02:00;;;;;;;111.38;103.32;;;;;;;;;;5020828;28;20045;-79
2023/03/02 00:04:47;;;;;;;18.45;11.35;;;;;;;;;;5034064;28;20054;-79
2023/03/02 00:07:18;;;;;;;23.98;11.65;;;;;;;;;;5025601;28;20050;-79
2023/03/02 00:09:46;;;;;;;30.85;11.40;;;;;;;;;;5021817;28;20383;-79
2023/03/02 00:12:14;;;;;;;23.90;12.27;;;;;;;;;;5021383;28;20049;-79
2023/03/02 00:14:42;;;;;;;21.70;11.63;;;;;;;;;;5008425;28;20117;-79
2023/03/02 00:17:09;;;;;;;32.90;15.48;;;;;;;;;;5017995;28;20046;-79
2023/03/02 00:19:37;;;;;;;30.20;14.07;;;;;;;;;;5017526;28;20480;-79
2023/03/02 00:22:05;;;;;;;23.20;10.93;;;;;;;;;;5020825;28;20037;-79
2023/03/02 00:24:33;;;;;;;20.35;10.68;;;;;;;;;;5017118;28;20124;-79
2023/03/02 00:27:00;;;;;;;20.48;11.57;;;;;;;;;;5026328;28;20045;-79
2023/03/02 00:29:27;;;;;;;31.88;14.75;;;;;;;;;;5021294;28;20507;-79
2023/03/02 00:31:55;;;;;;;32.00;15.05;;;;;;;;;;5011935;28;20049;-77
2023/03/02 00:34:22;;;;;;;33.05;14.80;;;;;;;;;;4990053;28;20045;-77
2023/03/02 00:36:49;;;;;;;29.20;14.70;;;;;;;;;;4994894;28;20084;-77
2023/03/02 00:39:18;;;;;;;23.60;13.25;;;;;;;;;;4997832;28;20045;-78
2023/03/02 00:41:47;;;;;;;25.98;13.60;;;;;;;;;;5015501;28;20438;-78
2023/03/02 00:44:16;;;;;;;27.33;13.52;;;;;;;;;;4995681;28;20034;-78
2023/03/02 00:46:44;;;;;;;20.00;11.32;;;;;;;;;;5024737;28;20054;-78
2023/03/02 00:49:12;;;;;;;14.70;9.73;;;;;;;;;;5012053;28;20396;-78
2023/03/02 00:51:39;;;;;;;14.70;9.32;;;;;;;;;;5012232;28;20395;-78
2023/03/02 00:54:07;;;;;;;16.27;9.27;;;;;;;;;;5001387;28;20135;-78
2023/03/02 00:56:34;;;;;;;16.77;9.48;;;;;;;;;;5010248;28;20056;-78
2023/03/02 00:59:27;;;;;;;14.38;8.85;;;;;;;;;;4993010;28;20053;-78
2023/03/02 01:02:07;;;;;;;13.82;8.98;;;;;;;;;;5012730;28;20524;-78
2023/03/02 01:04:36;;;;;;;13.45;9.23;;;;;;;;;;5022282;28;20412;-78
2023/03/02 01:07:10;;;;;;;15.50;9.65;;;;;;;;;;5000572;28;20045;-78
2023/03/02 01:09:38;;;;;;;18.25;10.70;;;;;;;;;;4999730;28;20049;-78
2023/03/02 01:12:10;;;;;;;16.95;10.68;;;;;;;;;;5003253;28;20053;-78
2023/03/02 01:14:38;;;;;;;19.15;11.27;;;;;;;;;;5021342;28;20122;-78
2023/03/02 01:17:07;;;;;;;20.15;12.48;;;;;;;;;;4995512;28;20046;-78
2023/03/02 01:19:34;;;;;;;21.25;11.88;;;;;;;;;;5004662;28;20099;-78
2023/03/02 01:22:02;;;;;;;21.60;13.52;;;;;;;;;;5014341;28;20038;-78
2023/03/02 01:24:29;;;;;;;49.97;27.63;;;;;;;;;;5012711;28;20049;-78
2023/03/02 01:26:57;;;;;;;16.05;10.40;;;;;;;;;;5023324;28;20054;-78
2023/03/02 01:29:25;;;;;;;17.60;10.23;;;;;;;;;;5021317;28;20037;-78
2023/03/02 01:31:52;;;;;;;16.58;10.45;;;;;;;;;;5000278;28;20111;-78
2023/03/02 01:34:20;;;;;;;16.40;9.48;;;;;;;;;;5018984;28;20343;-78
2023/03/02 01:36:48;;;;;;;16.58;9.68;;;;;;;;;;5005016;28;20045;-78
2023/03/02 01:39:16;;;;;;;16.13;9.68;;;;;;;;;;5021262;28;20065;-78
2023/03/02 01:41:44;;;;;;;16.05;9.82;;;;;;;;;;5013486;28;20045;-78
2023/03/02 01:44:51;;;;;;;14.75;8.82;;;;;;;;;;5000318;28;20041;-78
2023/03/02 01:47:18;;;;;;;14.73;8.43;;;;;;;;;;4923350;28;20079;-78
2023/03/02 01:50:18;;;;;;;13.25;9.05;;;;;;;;;;4913626;29;20082;-78
2023/03/02 01:52:47;;;;;;;14.93;8.90;;;;;;;;;;4973946;28;20046;-78
2023/03/02 01:55:16;;;;;;;15.70;9.57;;;;;;;;;;4998825;28;20046;-78
2023/03/02 01:57:45;;;;;;;13.40;8.75;;;;;;;;;;4995369;28;20045;-78
2023/03/02 02:00:15;;;;;;;14.88;8.60;;;;;;;;;;4994845;28;20038;-78
2023/03/02 02:02:42;;;;;;;16.23;9.15;;;;;;;;;;5025803;28;20050;-78
2023/03/02 02:05:13;;;;;;;12.63;8.05;;;;;;;;;;5019276;28;20045;-78
2023/03/02 02:07:41;;;;;;;14.70;8.05;;;;;;;;;;5024426;28;20423;-78
2023/03/02 02:10:09;;;;;;;18.15;9.48;;;;;;;;;;5005394;28;20140;-78
2023/03/02 02:12:37;;;;;;;14.23;9.13;;;;;;;;;;4997829;28;20053;-78
2023/03/02 02:15:04;;;;;;;17.65;9.38;;;;;;;;;;5023971;28;20052;-78
2023/03/02 02:17:32;;;;;;;10.45;8.02;;;;;;;;;;5025468;28;20049;-78
2023/03/02 02:20:18;;;;;;;13.60;8.23;;;;;;;;;;4995804;28;20125;-78
2023/03/02 02:22:51;;;;;;;12.38;7.88;;;;;;;;;;5012119;28;20128;-78
2023/03/02 02:25:32;;;;;;;15.50;8.93;;;;;;;;;;5014257;28;20061;-78
2023/03/02 02:28:01;;;;;;;13.18;8.70;;;;;;;;;;5016875;28;20053;-78
2023/03/02 02:30:28;;;;;;;11.10;7.82;;;;;;;;;;5014988;28;20048;-78
2023/03/02 02:32:57;;;;;;;14.52;9.02;;;;;;;;;;5017263;28;20062;-78
2023/03/02 02:35:29;;;;;;;15.38;8.50;;;;;;;;;;5024790;28;20057;-78
2023/03/02 02:38:00;;;;;;;18.70;10.15;;;;;;;;;;5002521;28;20535;-78
2023/03/02 02:40:39;;;;;;;12.43;8.73;;;;;;;;;;5005573;28;20049;-78
2023/03/02 02:43:12;;;;;;;13.25;9.35;;;;;;;;;;5002370;28;20056;-78
2023/03/02 02:45:39;;;;;;;17.23;10.02;;;;;;;;;;4995300;28;20488;-78
2023/03/02 02:48:18;;;;;;;14.55;9.45;;;;;;;;;;5012528;28;20153;-77
2023/03/02 02:50:46;;;;;;;16.40;9.43;;;;;;;;;;5014368;28;20064;-78
2023/03/02 02:53:18;;;;;;;17.10;9.10;;;;;;;;;;5009392;28;20172;-78
2023/03/02 02:55:47;;;;;;;16.48;8.65;;;;;;;;;;5002233;28;20057;-78
2023/03/02 02:58:24;;;;;;;17.13;10.50;;;;;;;;;;5000722;28;20038;-78
2023/03/02 03:00:54;;;;;;;14.50;8.30;;;;;;;;;;5002353;28;20174;-78
2023/03/02 03:03:30;;;;;;;15.60;8.77;;;;;;;;;;5007433;28;20140;-78
2023/03/02 03:06:03;;;;;;;14.82;9.02;;;;;;;;;;5003164;28;20049;-78
2023/03/02 03:08:43;;;;;;;14.20;9.13;;;;;;;;;;5020760;28;20083;-78
2023/03/02 03:11:22;;;;;;;13.05;8.55;;;;;;;;;;5001030;28;20053;-78
2023/03/02 03:13:53;;;;;;;15.00;8.20;;;;;;;;;;4991765;28;20060;-78
2023/03/02 03:16:22;;;;;;;12.25;7.97;;;;;;;;;;5000664;28;20052;-78
2023/03/02 03:18:50;;;;;;;14.40;8.90;;;;;;;;;;5016805;28;20427;-78
2023/03/02 03:21:18;;;;;;;16.08;9.38;;;;;;;;;;4999314;28;20124;-78
2023/03/02 03:23:45;;;;;;;20.25;9.65;;;;;;;;;;5021641;28;20076;-78
2023/03/02 03:26:13;;;;;;;16.77;9.20;;;;;;;;;;5026341;28;20103;-78
2023/03/02 03:28:40;;;;;;;31.17;14.50;;;;;;;;;;4991358;28;20531;-78
2023/03/02 03:31:07;;;;;;;15.98;9.23;;;;;;;;;;5015017;28;20049;-78
2023/03/02 03:33:35;;;;;;;22.48;9.50;;;;;;;;;;5012135;28;20049;-78
2023/03/02 03:36:02;;;;;;;19.48;9.20;;;;;;;;;;5015495;28;20112;-78
2023/03/02 03:38:30;;;;;;;18.95;8.88;;;;;;;;;;4990646;28;20144;-78
2023/03/02 03:40:58;;;;;;;19.13;9.63;;;;;;;;;;4998606;28;20451;-78
2023/03/02 03:43:25;;;;;;;17.30;8.95;;;;;;;;;;5012277;28;20058;-78
2023/03/02 03:45:54;;;;;;;18.25;9.88;;;;;;;;;;4993538;28;20041;-78
2023/03/02 03:48:21;;;;;;;20.52;9.48;;;;;;;;;;4999170;28;20121;-78
2023/03/02 03:50:49;;;;;;;14.38;8.68;;;;;;;;;;4990465;28;20058;-78
2023/03/02 03:53:17;;;;;;;18.20;9.52;;;;;;;;;;5020881;28;20123;-78
2023/03/02 03:55:44;;;;;;;16.63;9.27;;;;;;;;;;4997908;28;20049;-78
2023/03/02 03:58:13;;;;;;;16.42;8.68;;;;;;;;;;4991170;28;20571;-78
2023/03/02 04:00:41;;;;;;;15.77;8.93;;;;;;;;;;4997803;28;20141;-78
2023/03/02 04:03:10;;;;;;;18.58;9.52;;;;;;;;;;4995804;28;20144;-78
2023/03/02 04:05:37;;;;;;;14.00;8.30;;;;;;;;;;4994330;28;20056;-78
2023/03/02 04:08:05;;;;;;;15.88;9.25;;;;;;;;;;5008141;28;20127;-78
2023/03/02 04:10:33;;;;;;;21.30;15.32;;;;;;;;;;5003628;28;20049;-78
2023/03/02 04:13:01;;;;;;;18.70;9.85;;;;;;;;;;5001086;28;20041;-78
2023/03/02 04:15:30;;;;;;;23.85;9.93;;;;;;;;;;5002764;28;20494;-78
2023/03/02 04:17:59;;;;;;;21.75;10.48;;;;;;;;;;4988400;28;20045;-78
2023/03/02 04:20:27;;;;;;;16.73;8.90;;;;;;;;;;5015776;28;20389;-78
2023/03/02 04:22:56;;;;;;;15.02;8.43;;;;;;;;;;4991252;28;20038;-78
2023/03/02 04:25:25;;;;;;;14.57;8.35;;;;;;;;;;5000665;28;20065;-78
2023/03/02 04:28:09;;;;;;;15.40;8.73;;;;;;;;;;5002733;28;20549;-78
2023/03/02 04:30:38;;;;;;;16.50;8.68;;;;;;;;;;4997624;28;20077;-78
2023/03/02 04:33:06;;;;;;;14.63;7.60;;;;;;;;;;4993955;28;20053;-79
2023/03/02 04:35:35;;;;;;;14.90;8.93;;;;;;;;;;5009446;28;20137;-78
2023/03/02 04:38:03;;;;;;;16.92;8.35;;;;;;;;;;5007467;28;20076;-78
2023/03/02 04:40:34;;;;;;;16.52;9.10;;;;;;;;;;4994623;28;20049;-79
2023/03/02 04:43:03;;;;;;;13.05;7.70;;;;;;;;;;5018783;28;20046;-79
2023/03/02 04:45:31;;;;;;;13.20;9.43;;;;;;;;;;5015869;28;20520;-78
2023/03/02 04:47:58;;;;;;;16.73;9.38;;;;;;;;;;4997326;28;20567;-78
2023/03/02 04:50:25;;;;;;;18.45;8.98;;;;;;;;;;5009363;28;20055;-78
2023/03/02 04:52:53;;;;;;;17.38;9.48;;;;;;;;;;5018273;28;20056;-79
2023/03/02 04:55:22;;;;;;;19.73;10.18;;;;;;;;;;5025301;28;20046;-79
2023/03/02 04:57:50;;;;;;;14.85;8.82;;;;;;;;;;5012779;28;20393;-79
2023/03/02 05:00:18;;;;;;;16.77;9.98;;;;;;;;;;5024511;28;20124;-79
2023/03/02 05:02:46;;;;;;;16.10;8.80;;;;;;;;;;5017357;28;20046;-79
2023/03/02 05:05:16;;;;;;;16.05;9.10;;;;;;;;;;4994146;28;20056;-79
2023/03/02 05:07:43;;;;;;;15.35;10.52;;;;;;;;;;5011730;28;20148;-79
2023/03/02 05:10:14;;;;;;;16.25;9.77;;;;;;;;;;5016052;28;20415;-79
2023/03/02 05:13:01;;;;;;;23.38;14.65;;;;;;;;;;5015697;28;20112;-79
2023/03/02 05:15:33;;;;;;;19.17;9.90;;;;;;;;;;5016470;28;20080;-79
2023/03/02 05:18:01;;;;;;;18.98;10.93;;;;;;;;;;5011929;28;20049;-79
2023/03/02 05:20:30;;;;;;;17.02;9.27;;;;;;;;;;5021817;28;20053;-79
2023/03/02 05:22:59;;;;;;;20.88;18.92;;;;;;;;;;5016672;28;20128;-79
2023/03/02 05:25:27;;;;;;;16.20;7.68;;;;;;;;;;5025216;28;20437;-79
2023/03/02 05:27:55;;;;;;;21.27;14.23;;;;;;;;;;5009670;28;20423;-79
2023/03/02 05:30:23;;;;;;;22.05;19.80;;;;;;;;;;5021371;28;20463;-79
2023/03/02 05:32:51;;;;;;;60.78;54.38;;;;;;;;;;5020878;28;20091;-79
2023/03/02 05:35:22;;;;;;;27.13;16.25;;;;;;;;;;5014041;28;20531;-79
2023/03/02 05:37:49;;;;;;;11.90;8.57;;;;;;;;;;5021541;28;20463;-79
2023/03/02 05:40:19;;;;;;;44.70;31.23;;;;;;;;;;5026405;28;20156;-79
2023/03/02 05:42:47;;;;;;;14.82;7.93;;;;;;;;;;5007719;28;20049;-79
2023/03/02 05:45:22;;;;;;;12.77;7.68;;;;;;;;;;5024540;28;20423;-79
2023/03/02 05:47:50;;;;;;;12.90;7.47;;;;;;;;;;5012793;28;20049;-79
2023/03/02 05:50:18;;;;;;;12.65;6.57;;;;;;;;;;5019389;28;20049;-79
2023/03/02 05:52:45;;;;;;;19.05;7.32;;;;;;;;;;5027296;28;20067;-79
2023/03/02 05:55:16;;;;;;;11.75;6.97;;;;;;;;;;5022068;28;20045;-79
2023/03/02 05:57:44;;;;;;;20.95;7.05;;;;;;;;;;5021106;28;20115;-79
2023/03/02 06:00:13;;;;;;;12.43;6.97;;;;;;;;;;5023495;28;20037;-79
2023/03/02 06:02:41;;;;;;;21.45;19.27;;;;;;;;;;5025621;28;20499;-79
2023/03/02 06:05:13;;;;;;;11.00;8.57;;;;;;;;;;5033619;28;20048;-79
2023/03/02 06:07:40;;;;;;;14.52;9.10;;;;;;;;;;5034220;28;20072;-79
2023/03/02 06:10:08;;;;;;;17.92;10.20;;;;;;;;;;5028640;28;20057;-79
2023/03/02 06:12:36;;;;;;;15.93;9.48;;;;;;;;;;5027874;28;20053;-79
2023/03/02 06:15:04;;;;;;;16.48;9.95;;;;;;;;;;5027647;28;20065;-79
2023/03/02 06:17:32;;;;;;;18.88;9.88;;;;;;;;;;5020755;28;20545;-78
2023/03/02 06:20:00;;;;;;;12.38;7.72;;;;;;;;;;5018386;28;20099;-79
2023/03/02 06:22:28;;;;;;;17.60;15.77;;;;;;;;;;5018836;28;20054;-79
2023/03/02 06:24:55;;;;;;;38.10;35.00;;;;;;;;;;5025059;28;20046;-79
2023/03/02 06:27:22;;;;;;;18.02;9.02;;;;;;;;;;5024136;28;20069;-79
2023/03/02 06:29:50;;;;;;;13.82;7.63;;;;;;;;;;5014922;28;20125;-79
2023/03/02 06:32:17;;;;;;;13.50;7.72;;;;;;;;;;5010793;28;20037;-78
2023/03/02 06:34:45;;;;;;;13.25;7.50;;;;;;;;;;5011329;28;20049;-79
2023/03/02 06:37:14;;;;;;;17.60;12.13;;;;;;;;;;5006015;28;20124;-79
2023/03/02 06:39:42;;;;;;;8.85;6.45;;;;;;;;;;5015147;28;20054;-79
2023/03/02 06:42:09;;;;;;;16.58;6.95;;;;;;;;;;5023637;28;20065;-78
2023/03/02 06:44:36;;;;;;;45.53;38.00;;;;;;;;;;5017025;28;20046;-79
2023/03/02 06:47:04;;;;;;;11.52;7.13;;;;;;;;;;5018015;28;20136;-80
2023/03/02 06:49:31;;;;;;;16.15;8.25;;;;;;;;;;5012190;28;20061;-79
2023/03/02 06:51:59;;;;;;;14.80;8.32;;;;;;;;;;5020630;28;20048;-79
2023/03/02 06:54:26;;;;;;;18.05;13.02;;;;;;;;;;5027376;28;20133;-79
2023/03/02 06:56:55;;;;;;;15.98;10.48;;;;;;;;;;5029315;28;20385;-79
2023/03/02 06:59:23;;;;;;;17.75;8.13;;;;;;;;;;5030217;28;20522;-79
2023/03/02 07:01:50;;;;;;;16.73;7.70;;;;;;;;;;5029384;28;20103;-79
2023/03/02 07:04:18;;;;;;;14.85;7.78;;;;;;;;;;5031117;28;20282;-79
2023/03/02 07:06:45;;;;;;;11.20;7.07;;;;;;;;;;5030288;28;20128;-79
2023/03/02 07:09:13;;;;;;;15.20;7.40;;;;;;;;;;5030248;28;20519;-79
2023/03/02 07:11:40;;;;;;;16.83;7.90;;;;;;;;;;5030136;28;20060;-79
2023/03/02 07:14:07;;;;;;;11.07;7.25;;;;;;;;;;5030356;28;20045;-79
2023/03/02 07:16:35;;;;;;;16.88;7.55;;;;;;;;;;5029693;28;20042;-79
2023/03/02 07:19:02;;;;;;;11.50;7.30;;;;;;;;;;5029432;28;20049;-79
2023/03/02 07:21:30;;;;;;;16.45;9.57;;;;;;;;;;5028467;28;20418;-77
2023/03/02 07:23:58;;;;;;;17.85;7.65;;;;;;;;;;5026816;28;20124;-78
2023/03/02 07:26:25;;;;;;;13.50;7.38;;;;;;;;;;5027217;28;20045;-78
2023/03/02 07:28:52;;;;;;;29.15;14.85;;;;;;;;;;5028250;28;20059;-78
2023/03/02 07:31:20;;;;;;;14.23;6.90;;;;;;;;;;5030064;28;20041;-78
2023/03/02 07:33:48;;;;;;;16.38;7.18;;;;;;;;;;5033205;28;20080;-78
2023/03/02 07:36:18;;;;;;;13.13;6.72;;;;;;;;;;5028471;28;20072;-78
2023/03/02 07:38:48;;;;;;;11.75;6.35;;;;;;;;;;5037269;28;20057;-78
2023/03/02 07:41:18;;;;;;;15.38;7.07;;;;;;;;;;5046891;28;20108;-79
2023/03/02 07:43:46;;;;;;;16.70;7.93;;;;;;;;;;5038193;28;20058;-78
2023/03/02 07:46:13;;;;;;;15.52;6.57;;;;;;;;;;5035345;28;20049;-78
2023/03/02 07:48:41;;;;;;;12.13;6.85;;;;;;;;;;5041862;28;20049;-79
2023/03/02 07:51:10;;;;;;;12.10;7.40;;;;;;;;;;5034392;28;20048;-79
2023/03/02 07:53:37;;;;;;;15.77;7.85;;;;;;;;;;5027317;28;20060;-78
2023/03/02 07:56:06;;;;;;;13.18;7.47;;;;;;;;;;5026087;28;20487;-79
2023/03/02 07:58:33;;;;;;;12.55;6.75;;;;;;;;;;5025558;28;20048;-78
2023/03/02 08:01:01;;;;;;;17.83;7.80;;;;;;;;;;5028267;28;20132;-79
2023/03/02 08:03:29;;;;;;;11.38;6.63;;;;;;;;;;5026141;28;20049;-79
2023/03/02 08:05:56;;;;;;;22.00;16.35;;;;;;;;;;5027615;28;20463;-78
2023/03/02 08:08:24;;;;;;;60.30;36.97;;;;;;;;;;5027159;28;20080;-78
2023/03/02 08:10:51;;;;;;;14.32;6.55;;;;;;;;;;5027549;28;20107;-78
2023/03/02 08:13:18;;;;;;;9.18;6.28;;;;;;;;;;5027731;28;20046;-78
2023/03/02 08:15:45;;;;;;;67.20;35.25;;;;;;;;;;5027209;28;20053;-79
2023/03/02 08:18:13;;;;;;;18.20;11.90;;;;;;;;;;5015843;28;20037;-79
2023/03/02 08:20:40;;;;;;;14.55;9.82;;;;;;;;;;5027969;28;20075;-78
2023/03/02 08:23:11;;;;;;;58.05;52.30;;;;;;;;;;5027258;28;20045;-78
2023/03/02 08:25:41;;;;;;;115.82;70.57;;;;;;;;;;5026695;28;20072;-80
2023/03/02 08:28:08;;;;;;;20.55;18.13;;;;;;;;;;5027636;28;20486;-79
2023/03/02 08:30:36;;;;;;;13.65;7.03;;;;;;;;;;5029099;28;20155;-79
2023/03/02 08:33:04;;;;;;;334.17;203.77;;;;;;;;;;5026674;28;20045;-79
2023/03/02 08:35:33;;;;;;;26.95;15.40;;;;;;;;;;5026581;28;20136;-79
2023/03/02 08:38:01;;;;;;;29.23;22.02;;;;;;;;;;5026953;28;20427;-79
2023/03/02 08:40:28;;;;;;;26.23;12.48;;;;;;;;;;5024699;28;20050;-78
2023/03/02 08:42:56;;;;;;;19.63;9.07;;;;;;;;;;5023278;28;20523;-79
2023/03/02 08:45:24;;;;;;;43.75;39.30;;;;;;;;;;5024473;28;20419;-79
2023/03/02 08:47:54;;;;;;;17.73;14.23;;;;;;;;;;5024754;28;20045;-78
2023/03/02 08:50:22;;;;;;;10.68;5.65;;;;;;;;;;5024495;28;20037;-79
2023/03/02 08:52:49;;;;;;;10.30;6.35;;;;;;;;;;5026878;28;20041;-79
2023/03/02 08:55:17;;;;;;;17.85;6.72;;;;;;;;;;5025582;28;20081;-79
2023/03/02 08:57:44;;;;;;;22.48;16.73;;;;;;;;;;5027441;28;20069;-79
2023/03/02 09:00:15;;;;;;;16.83;7.43;;;;;;;;;;5025108;28;20053;-78
2023/03/02 09:02:42;;;;;;;15.95;7.03;;;;;;;;;;5015707;28;20042;-78
2023/03/02 09:05:11;;;;;;;80.43;70.60;;;;;;;;;;5027625;28;20069;-78
2023/03/02 09:07:38;;;;;;;11.98;6.00;;;;;;;;;;5033479;28;20470;-79
2023/03/02 09:10:05;;;;;;;14.18;6.50;;;;;;;;;;5034255;28;20519;-79
2023/03/02 09:12:33;;;;;;;13.25;7.60;;;;;;;;;;5034195;28;20096;-78
2023/03/02 09:15:03;;;;;;;13.18;8.73;;;;;;;;;;5029026;28;20499;-79
2023/03/02 09:17:31;;;;;;;20.08;6.57;;;;;;;;;;5024561;28;20045;-79
2023/03/02 09:19:59;;;;;;;13.48;7.70;;;;;;;;;;5020042;28;20053;-78
2023/03/02 09:22:27;;;;;;;41.80;38.05;;;;;;;;;;5024761;28;20050;-78
2023/03/02 09:24:55;;;;;;;11.98;5.63;;;;;;;;;;5030319;28;20071;-79
2023/03/02 09:27:22;;;;;;;19.20;5.80;;;;;;;;;;5028923;28;20841;-79
2023/03/02 09:29:50;;;;;;;10.85;5.28;;;;;;;;;;5027727;28;20080;-80
2023/03/02 09:32:18;;;;;;;14.77;6.03;;;;;;;;;;5029224;28;20050;-79
2023/03/02 09:34:45;;;;;;;16.83;5.68;;;;;;;;;;5024714;28;20606;-79
2023/03/02 09:37:12;;;;;;;14.13;7.60;;;;;;;;;;5026028;28;20049;-79
2023/03/02 09:39:40;;;;;;;14.85;8.52;;;;;;;;;;5035303;28;20052;-79
2023/03/02 09:42:17;;;;;;;18.63;6.47;;;;;;;;;;5035409;28;20050;-77
2023/03/02 09:45:03;;;;;;;12.32;10.45;;;;;;;;;;5025263;28;20048;-81
2023/03/02 09:47:42;;;;;;;9.52;4.85;;;;;;;;;;5027205;28;20510;-79
2023/03/02 09:50:19;;;;;;;17.77;5.82;;;;;;;;;;5028546;28;20080;-78
2023/03/02 09:53:01;;;;;;;12.80;6.43;;;;;;;;;;5023189;28;20545;-80
2023/03/02 09:55:32;;;;;;;9.30;4.40;;;;;;;;;;5023297;28;20049;-79
2023/03/02 09:58:01;;;;;;;13.70;5.55;;;;;;;;;;5012744;28;20439;-79
2023/03/02 10:00:32;;;;;;;10.35;4.55;;;;;;;;;;5022836;28;20128;-78
2023/03/02 10:03:01;;;;;;;14.48;4.47;;;;;;;;;;5031677;28;20041;-79
2023/03/02 10:05:53;;;;;;;49.58;34.92;;;;;;;;;;5033295;28;20514;-81
2023/03/02 10:08:22;;;;;;;8.10;5.13;;;;;;;;;;5020057;28;20335;-78
2023/03/02 10:10:52;;;;;;;12.93;4.65;;;;;;;;;;5026523;28;20049;-80
2023/03/02 10:13:20;;;;;;;6.97;3.60;;;;;;;;;;5026322;28;20120;-79
2023/03/02 10:16:09;;;;;;;7.47;4.15;;;;;;;;;;5026101;28;20045;-79
2023/03/02 10:18:41;;;;;;;77.75;57.72;;;;;;;;;;5024009;28;20632;-79
2023/03/02 10:21:08;;;;;;;28.05;12.68;;;;;;;;;;5027979;28;20468;-78
2023/03/02 10:23:43;;;;;;;113.97;81.32;;;;;;;;;;5028614;28;20136;-78
2023/03/02 10:26:15;;;;;;;9.75;3.22;;;;;;;;;;5027529;28;20060;-79
2023/03/02 10:28:57;;;;;;;12.88;3.53;;;;;;;;;;5029238;28;20057;-81
2023/03/02 10:31:29;;;;;;;29.30;16.38;;;;;;;;;;5027705;28;20072;-77
2023/03/02 10:33:57;;;;;;;45.53;31.35;;;;;;;;;;5029690;28;20041;-79
2023/03/02 10:36:27;;;;;;;39.40;35.97;;;;;;;;;;5015077;23;20084;-79
2023/03/02 10:38:55;;;;;;;78.90;55.42;;;;;;;;;;5022048;28;20087;-82
2023/03/02 10:41:26;;;;;;;151.43;69.68;;;;;;;;;;5020632;28;20041;-81
2023/03/02 10:44:00;;;;;;;13.77;3.95;;;;;;;;;;5005124;28;20038;-82
2023/03/02 10:46:39;;;;;;;55.33;35.60;;;;;;;;;;5020871;28;20049;-80
2023/03/02 10:49:23;;;;;;;153.57;102.03;;;;;;;;;;5029293;28;20063;-81
2023/03/02 10:52:04;;;;;;;12.10;6.95;;;;;;;;;;5021841;28;20506;-80
2023/03/02 10:54:32;;;;;;;143.43;96.78;;;;;;;;;;5013345;28;20526;-80
2023/03/02 10:57:01;;;;;;;108.40;78.22;;;;;;;;;;5013561;28;20049;-81
2023/03/02 10:59:38;;;;;;;61.88;44.60;;;;;;;;;;5016674;28;20046;-83
2023/03/02 11:02:17;;;;;;;6.80;3.42;;;;;;;;;;5021117;28;20427;-80
2023/03/02 11:04:45;;;;;;;53.42;37.78;;;;;;;;;;5023513;28;20059;-81
2023/03/02 11:07:19;;;;;;;10.68;3.75;;;;;;;;;;5014991;28;20042;-80
2023/03/02 11:09:57;;;;;;;7.50;3.72;;;;;;;;;;5019452;28;20136;-78
2023/03/02 11:12:24;;;;;;;9.35;3.70;;;;;;;;;;5002857;28;20495;-81
2023/03/02 11:15:07;;;;;;;12.38;3.65;;;;;;;;;;5017827;28;20068;-80
2023/03/02 11:17:37;;;;;;;42.70;14.25;;;;;;;;;;5021117;28;20057;-79
2023/03/02 11:20:06;;;;;;;185.82;127.95;;;;;;;;;;5003728;28;20543;-80
2023/03/02 11:22:38;;;;;;;7.80;4.18;;;;;;;;;;5011646;28;20072;-81
2023/03/02 11:25:05;;;;;;;;;;;;;;;;;;5003143;28;20112;-80
2023/03/02 11:27:34;;;;;;;19.35;17.55;;;;;;;;;;5001964;28;19931;-80
2023/03/02 11:30:02;;;;;;;6.60;3.28;;;;;;;;;;5018405;28;20116;-80
2023/03/02 11:32:44;;;;;;;9.45;3.15;;;;;;;;;;5018573;28;20053;-80
2023/03/02 11:35:24;;;;;;;9.10;3.08;;;;;;;;;;5023458;28;20037;-81
2023/03/02 11:38:50;;;;;;;5.90;3.20;;;;;;;;;;5020521;28;20052;-80
2023/03/02 11:41:23;;;;;;;6.78;3.92;;;;;;;;;;5023828;28;20133;-82
2023/03/02 11:43:53;;;;;;;19.45;16.65;;;;;;;;;;5020725;28;20624;-82
2023/03/02 11:46:30;;;;;;;9.70;3.45;;;;;;;;;;5024707;28;20041;-80
2023/03/02 11:49:06;;;;;;;9.15;3.50;;;;;;;;;;5009481;28;20042;-81
2023/03/02 11:51:38;;;;;;;8.35;3.70;;;;;;;;;;5032843;28;20050;-83
2023/03/02 11:54:29;;;;;;;80.38;49.15;;;;;;;;;;5030448;28;20053;-82
2023/03/02 11:56:58;;;;;;;4.25;3.50;;;;;;;;;;5032613;28;20388;-81
2023/03/02 11:59:26;;;;;;;71.57;63.42;;;;;;;;;;5022697;28;20085;-84
2023/03/02 12:01:58;;;;;;;8.52;3.20;;;;;;;;;;5025800;28;20136;-81
2023/03/02 12:04:33;;;;;;;22.88;12.32;;;;;;;;;;5010084;28;20037;-83
2023/03/02 12:07:03;;;;;;;6.53;3.25;;;;;;;;;;5032604;28;20042;-81
2023/03/02 12:09:33;;;;;;;13.48;3.60;;;;;;;;;;5022165;28;20099;-81
2023/03/02 12:12:20;;;;;;;5.85;3.90;;;;;;;;;;5002953;28;20117;-82
2023/03/02 12:14:47;;;;;;;5.45;3.70;;;;;;;;;;5017393;28;20507;-81
2023/03/02 12:17:21;;;;;;;10.52;7.45;;;;;;;;;;5022818;28;20061;-81
2023/03/02 12:19:49;;;;;;;5.50;2.88;;;;;;;;;;5022989;28;20050;-81
2023/03/02 12:22:30;;;;;;;29.23;26.23;;;;;;;;;;5022101;28;20050;-80
2023/03/02 12:25:02;;;;;;;8.63;3.17;;;;;;;;;;5020247;28;20065;-81
2023/03/02 12:27:34;;;;;;;64.15;52.83;;;;;;;;;;5023384;28;20087;-83
2023/03/02 12:30:10;;;;;;;8.45;7.68;;;;;;;;;;5020152;28;20041;-82
2023/03/02 12:32:38;;;;;;;8.57;3.80;;;;;;;;;;5004215;28;20053;-81
2023/03/02 12:35:08;;;;;;;10.48;3.45;;;;;;;;;;5027165;28;20042;-80
2023/03/02 12:37:38;;;;;;;43.65;35.25;;;;;;;;;;5003522;28;20053;-82
2023/03/02 12:40:09;;;;;;;9.73;6.85;;;;;;;;;;5000086;28;20049;-80
2023/03/02 12:42:49;;;;;;;8.23;3.22;;;;;;;;;;5000557;28;20041;-81
2023/03/02 12:45:35;;;;;;;13.95;5.18;;;;;;;;;;5018738;28;20045;-80
2023/03/02 12:48:13;;;;;;;26.00;23.30;;;;;;;;;;5021571;28;20041;-83
2023/03/02 12:50:41;;;;;;;10.10;3.63;;;;;;;;;;5019522;28;20503;-84
2023/03/02 12:53:16;;;;;;;19.33;7.55;;;;;;;;;;5004504;28;20045;-81
2023/03/02 12:55:43;;;;;;;7.32;6.57;;;;;;;;;;5002123;28;20565;-82
2023/03/02 12:58:16;;;;;;;6.25;3.38;;;;;;;;;;5001825;28;20096;-81
2023/03/02 13:00:49;;;;;;;45.22;40.30;;;;;;;;;;5019207;28;20575;-82
2023/03/02 13:03:17;;;;;;;7.93;3.45;;;;;;;;;;5019417;28;20108;-80
2023/03/02 13:05:48;;;;;;;7.50;3.22;;;;;;;;;;5022773;28;20041;-81
2023/03/02 13:08:22;;;;;;;34.47;30.25;;;;;;;;;;5004997;28;20495;-83
2023/03/02 13:10:54;;;;;;;6.20;3.30;;;;;;;;;;5017295;28;20128;-81
2023/03/02 13:13:30;;;;;;;;;;;;;;;;;;5019157;28;20050;-82
2023/03/02 13:16:53;;;;;;;40.63;31.88;;;;;;;;;;5019125;28;19913;-82
2023/03/02 13:19:22;;;;;;;64.53;42.45;;;;;;;;;;5015540;28;20141;-80
2023/03/02 13:21:53;;;;;;;34.50;9.63;;;;;;;;;;5011351;28;20496;-82
2023/03/02 13:24:36;;;;;;;7.03;5.60;;;;;;;;;;5020824;28;20423;-81
2023/03/02 13:30:26;;;;;;;15.95;12.80;;;;;;;;;;5027923;28;20578;-83
2023/03/02 13:32:57;;;;;;;13.40;6.38;;;;;;;;;;5028943;28;20111;-82
2023/03/02 13:35:26;;;;;;;12.15;6.60;;;;;;;;;;5008116;28;20061;-83
2023/03/02 13:38:04;;;;;;;9.95;6.18;;;;;;;;;;4991315;28;20057;-83
2023/03/02 13:40:39;;;;;;;36.78;24.50;;;;;;;;;;5008098;28;20504;-82
2023/03/02 13:43:25;;;;;;;10.23;6.45;;;;;;;;;;5010073;28;20570;-82
2023/03/02 13:45:57;;;;;;;23.80;21.45;;;;;;;;;;5009155;28;20457;-81
2023/03/02 13:48:26;;;;;;;11.38;6.82;;;;;;;;;;5008215;28;20054;-81
2023/03/02 13:50:58;;;;;;;10.32;6.70;;;;;;;;;;5007754;28;20054;-81
2023/03/02 13:53:25;;;;;;;;;;;;;;;;;;4991132;28;20504;-82
2023/03/02 13:55:53;;;;;;;10.98;6.28;;;;;;;;;;5011664;28;20379;-81
2023/03/02 13:58:21;;;;;;;8.35;5.93;;;;;;;;;;5001290;28;20038;-80
2023/03/02 14:00:49;;;;;;;12.48;6.03;;;;;;;;;;5004496;28;20129;-80
2023/03/02 14:03:35;;;;;;;11.77;5.70;;;;;;;;;;5024800;28;20046;-81
2023/03/02 14:06:04;;;;;;;11.45;6.75;;;;;;;;;;5023889;28;20096;-81
2023/03/02 14:08:32;;;;;;;8.07;6.25;;;;;;;;;;5028997;28;20515;-80
2023/03/02 14:11:00;;;;;;;9.23;6.40;;;;;;;;;;5032784;28;20057;-81
2023/03/02 14:13:36;;;;;;;56.38;51.03;;;;;;;;;;5032886;28;20456;-80
2023/03/02 14:16:04;;;;;;;10.02;6.82;;;;;;;;;;5014539;28;20149;-83
2023/03/02 14:18:42;;;;;;;10.45;6.25;;;;;;;;;;5015795;28;20053;-81
2023/03/02 14:21:17;;;;;;;14.27;8.57;;;;;;;;;;5033200;28;20048;-80
2023/03/02 14:23:45;;;;;;;10.23;6.47;;;;;;;;;;5037008;28;20050;-81
2023/03/02 14:26:21;;;;;;;13.20;5.80;;;;;;;;;;5035331;28;20070;-80
2023/03/02 14:28:49;;;;;;;11.50;5.90;;;;;;;;;;5034834;28;20046;-80
2023/03/02 14:31:30;;;;;;;9.82;6.10;;;;;;;;;;5040941;28;20173;-81
2023/03/02 14:33:58;;;;;;;14.77;7.05;;;;;;;;;;5037946;28;20054;-80
2023/03/02 14:36:32;;;;;;;65.15;52.35;;;;;;;;;;5040081;28;20057;-81
2023/03/02 14:39:01;;;;;;;160.50;69.72;;;;;;;;;;5028759;28;20092;-83
2023/03/02 14:41:34;;;;;;;8.48;5.25;;;;;;;;;;5030263;28;20056;-83
2023/03/02 14:44:13;;;;;;;15.82;6.03;;;;;;;;;;5038504;28;20038;-83
2023/03/02 14:46:42;;;;;;;10.25;6.25;;;;;;;;;;5035047;28;20068;-81
2023/03/02 14:49:09;;;;;;;11.65;6.40;;;;;;;;;;5040004;28;20051;-82
2023/03/02 14:51:39;;;;;;;13.75;6.60;;;;;;;;;;5026561;28;20058;-82
2023/03/02 14:54:08;;;;;;;10.60;5.53;;;;;;;;;;5025708;28;20065;-80